createdAt,value
2023-03-26T00:00:05.094Z,1.3
2023-03-26T00:05:05.114Z,1.5
2023-03-26T00:10:05.099Z,1.5
2023-03-26T00:15:05.094Z,1.5
2023-03-26T00:20:05.096Z,1.8
2023-03-26T00:25:05.098Z,1.6
2023-03-26T00:30:05.091Z,1.5
2023-03-26T00:35:05.106Z,1.9
2023-03-26T00:40:05.092Z,1.9
2023-03-26T00:45:05.095Z,1.5
2023-03-26T00:50:05.111Z,1.6
2023-03-26T00:55:05.095Z,1.6
2023-03-26T01:00:05.098Z,1.9
2023-03-26T01:05:05.149Z,1.5
2023-03-26T01:10:05.111Z,1.5
2023-03-26T01:15:05.100Z,1.7
2023-03-26T01:20:05.097Z,2.1
2023-03-26T01:25:05.105Z,1.7
2023-03-26T01:30:05.102Z,1.7
2023-03-26T01:35:05.164Z,1.8
2023-03-26T01:40:05.105Z,1.8
2023-03-26T01:45:05.095Z,2.1
2023-03-26T01:50:05.103Z,1.8
2023-03-26T01:55:05.097Z,1.9
2023-03-26T02:00:05.093Z,2.3
2023-03-26T02:05:05.098Z,3.1
2023-03-26T02:10:05.096Z,3.1
2023-03-26T02:15:05.111Z,1.8
2023-03-26T02:20:05.093Z,2.6
2023-03-26T02:25:05.097Z,1.7
2023-03-26T02:30:05.084Z,1.8
2023-03-26T02:35:05.104Z,2
2023-03-26T02:40:05.103Z,2
2023-03-26T02:45:05.087Z,1.9
2023-03-26T02:50:05.094Z,1.7
2023-03-26T02:55:05.112Z,1.8
2023-03-26T03:00:05.099Z,1.6
2023-03-26T03:05:05.096Z,2.2
2023-03-26T03:10:05.094Z,2.2
2023-03-26T03:15:05.093Z,1.7
2023-03-26T03:20:05.095Z,2.3
2023-03-26T03:25:05.109Z,2
2023-03-26T03:30:05.094Z,2
2023-03-26T03:35:05.104Z,2.2
2023-03-26T03:40:05.102Z,2.2
2023-03-26T03:45:05.099Z,2.1
2023-03-26T03:50:05.089Z,2
2023-03-26T03:55:05.110Z,2.2
2023-03-26T04:00:06.824Z,2.1
2023-03-26T04:05:05.115Z,2.9
2023-03-26T04:10:05.109Z,2.9
2023-03-26T04:15:05.105Z,2.2
2023-03-26T04:20:05.098Z,1.9
2023-03-26T04:25:05.100Z,2.1
2023-03-26T04:30:05.094Z,3
2023-03-26T04:35:05.104Z,2.2
2023-03-26T04:40:05.096Z,2.2
2023-03-26T04:45:05.102Z,2.3
2023-03-26T04:50:05.095Z,3
2023-03-26T04:55:05.162Z,2.4
2023-03-26T05:00:05.096Z,2.1
2023-03-26T05:05:05.137Z,2.5
2023-03-26T05:10:05.159Z,2.5
2023-03-26T05:15:05.257Z,2.4
2023-03-26T05:20:05.139Z,2.2
2023-03-26T05:25:05.090Z,2.1
2023-03-26T05:30:05.099Z,2.4
2023-03-26T05:35:05.092Z,2.7
2023-03-26T05:40:05.100Z,2.7
2023-03-26T05:45:05.100Z,2.1
2023-03-26T05:50:05.090Z,2.7
2023-03-26T05:55:05.106Z,2.1
2023-03-26T06:00:05.114Z,2.5
2023-03-26T06:05:05.099Z,2.4
2023-03-26T06:10:05.098Z,2.4
2023-03-26T06:15:05.088Z,2.6
2023-03-26T06:20:05.570Z,2.2
2023-03-26T06:25:05.113Z,2.4
2023-03-26T06:30:05.094Z,2
2023-03-26T06:35:05.086Z,2.4
2023-03-26T06:40:05.116Z,2.4
2023-03-26T06:45:05.095Z,2.6
2023-03-26T06:50:05.092Z,2.1
2023-03-26T06:55:05.090Z,1.8
2023-03-26T07:00:05.102Z,2.8
2023-03-26T07:05:05.111Z,2
2023-03-26T07:10:05.099Z,2
2023-03-26T07:15:05.099Z,1.6
2023-03-26T07:20:05.103Z,2
2023-03-26T07:25:05.106Z,2.2
2023-03-26T07:30:05.096Z,2.6
2023-03-26T07:35:05.098Z,2.8
2023-03-26T07:40:05.093Z,2.8
2023-03-26T07:45:05.108Z,2.6
2023-03-26T07:50:05.103Z,2.2
2023-03-26T07:55:05.107Z,2.7
2023-03-26T08:00:05.087Z,2
2023-03-26T08:05:05.267Z,2.3
2023-03-26T08:10:05.086Z,2.3
2023-03-26T08:15:05.088Z,2.2
2023-03-26T08:20:05.086Z,2.4
2023-03-26T08:25:05.098Z,2.8
2023-03-26T08:30:05.101Z,2.7
2023-03-26T08:35:05.101Z,2.8
2023-03-26T08:40:05.083Z,2.8
2023-03-26T08:45:05.085Z,2.6
2023-03-26T08:50:05.083Z,2.3
2023-03-26T08:55:05.091Z,3.3
2023-03-26T09:00:05.094Z,2.7
2023-03-26T09:05:05.098Z,3.2
2023-03-26T09:10:05.109Z,3.2
2023-03-26T09:15:05.088Z,3.1
2023-03-26T09:20:05.105Z,3
2023-03-26T09:25:05.115Z,3.2
2023-03-26T09:30:05.090Z,3.4
2023-03-26T09:35:05.104Z,2.7
2023-03-26T09:40:05.104Z,2.7
2023-03-26T09:45:05.105Z,3.9
2023-03-26T09:50:05.099Z,2.9
2023-03-26T09:55:05.107Z,3.6
2023-03-26T10:00:05.110Z,3.6
2023-03-26T10:05:05.273Z,3.6
2023-03-26T10:10:05.110Z,3.4
2023-03-26T10:15:05.110Z,3.5
2023-03-26T10:20:05.131Z,3.3
2023-03-26T10:25:05.106Z,2.3
2023-03-26T10:30:05.105Z,2.8
2023-03-26T10:35:05.094Z,2.8
2023-03-26T10:40:05.095Z,2.8
2023-03-26T10:45:06.369Z,3.1
2023-03-26T10:50:05.093Z,2.2
2023-03-26T10:55:05.097Z,2.1
2023-03-26T11:00:05.099Z,2.3
2023-03-26T11:05:05.128Z,2.3
2023-03-26T11:10:05.096Z,2.3
2023-03-26T11:15:05.108Z,2.9
2023-03-26T11:20:05.095Z,2.6
2023-03-26T11:25:05.683Z,2.1
2023-03-26T11:30:05.106Z,2
2023-03-26T11:35:05.108Z,1.9
2023-03-26T11:40:05.115Z,1.9
2023-03-26T11:45:05.119Z,2.4
2023-03-26T11:50:05.141Z,2.4
2023-03-26T11:55:05.100Z,2.4
2023-03-26T12:00:05.114Z,1.8
2023-03-26T12:05:05.087Z,1.8
2023-03-26T12:10:15.570Z,1.8
2023-03-26T12:15:05.073Z,2.9
2023-03-26T12:20:05.077Z,1.9
2023-03-26T12:25:05.077Z,2.6
2023-03-26T12:30:05.084Z,1.9
2023-03-26T12:35:05.094Z,2.2
2023-03-26T12:40:08.466Z,2.2
2023-03-26T12:45:05.062Z,2.1
2023-03-26T12:50:05.083Z,2.1
2023-03-26T12:55:11.997Z,1.9
2023-03-26T13:00:05.071Z,1.7
2023-03-26T13:05:06.659Z,1.6
2023-03-26T13:10:05.077Z,1.6
2023-03-26T13:15:05.086Z,1.7
2023-03-26T13:20:05.086Z,1.7
2023-03-26T13:25:05.090Z,1.4
2023-03-26T13:30:05.078Z,1.3
2023-03-26T13:35:05.087Z,1.6
2023-03-26T13:40:05.080Z,1.6
2023-03-26T13:45:05.750Z,1.3
2023-03-26T13:50:05.077Z,1.3
2023-03-26T13:55:05.097Z,1.7
2023-03-26T14:00:05.077Z,1.3
2023-03-26T14:05:05.071Z,1.4
2023-03-26T14:10:05.092Z,1.4
2023-03-26T14:15:05.084Z,1.3
2023-03-26T14:20:05.096Z,1
2023-03-26T14:25:05.099Z,1
2023-03-26T14:30:05.099Z,1.1
2023-03-26T14:35:05.086Z,0.9
2023-03-26T14:40:05.120Z,0.9
2023-03-26T14:45:05.092Z,0.8
2023-03-26T14:50:05.092Z,0.8
2023-03-26T14:55:05.114Z,1
2023-03-26T15:00:05.096Z,0.9
2023-03-26T15:05:05.098Z,0.7
2023-03-26T15:10:05.929Z,0.7
2023-03-26T15:15:05.096Z,0.5
2023-03-26T15:20:05.100Z,0.5
2023-03-26T15:25:05.124Z,0.4
2023-03-26T15:30:05.113Z,0.4
2023-03-26T15:35:05.092Z,0.8
2023-03-26T15:40:05.117Z,0.8
2023-03-26T15:45:05.091Z,0.8
2023-03-26T15:50:05.094Z,0.7
2023-03-26T15:55:05.110Z,0.7
2023-03-26T16:00:05.096Z,0.8
2023-03-26T16:05:05.216Z,0.6
2023-03-26T16:10:05.103Z,0.6
2023-03-26T16:15:05.080Z,0.9
2023-03-26T16:20:05.089Z,0.9
2023-03-26T16:25:27.041Z,0.8
2023-03-26T16:30:05.082Z,1.2
2023-03-26T16:35:05.084Z,0.9
2023-03-26T16:40:05.107Z,0.9
2023-03-26T16:45:05.095Z,1.2
2023-03-26T16:50:07.995Z,0.9
2023-03-26T16:55:05.119Z,1
2023-03-26T17:00:06.523Z,1.3
2023-03-26T17:05:05.107Z,1.4
2023-03-26T17:10:05.104Z,1.4
2023-03-26T17:15:05.096Z,1.1
2023-03-26T17:20:05.099Z,1.1
2023-03-26T17:25:05.100Z,1.1
2023-03-26T17:30:05.109Z,1.3
2023-03-26T17:35:05.083Z,1.3
2023-03-26T17:40:05.114Z,1.3
2023-03-26T17:45:05.242Z,1.5
2023-03-26T17:50:05.111Z,0.7
2023-03-26T17:55:05.203Z,0.9
2023-03-26T18:00:05.211Z,0.4
2023-03-26T18:05:05.160Z,0.2
2023-03-26T18:10:05.245Z,0.2
2023-03-26T18:15:05.083Z,0.3
2023-03-26T18:20:05.089Z,0.2
2023-03-26T18:25:05.101Z,0.2
2023-03-26T18:30:05.087Z,0.2
2023-03-26T18:35:05.091Z,0.2
2023-03-26T18:40:05.114Z,0.2
2023-03-26T18:45:05.394Z,0.2
2023-03-26T18:50:05.102Z,0.4
2023-03-26T18:55:05.098Z,0.3
2023-03-26T19:00:05.089Z,0.5
2023-03-26T19:05:05.089Z,0.5
2023-03-26T19:10:05.117Z,0.5
2023-03-26T19:15:05.092Z,0.5
2023-03-26T19:20:05.076Z,0.6
2023-03-26T19:25:05.099Z,0.8
2023-03-26T19:30:05.091Z,0.6
2023-03-26T19:35:05.084Z,0.7
2023-03-26T19:40:05.114Z,0.7
2023-03-26T19:45:05.096Z,0.9
2023-03-26T19:50:05.093Z,1.2
2023-03-26T19:55:05.132Z,2.7
2023-03-26T20:00:05.099Z,2.5
2023-03-26T20:05:05.092Z,1.9
2023-03-26T20:10:05.112Z,1.9
2023-03-26T20:15:05.089Z,1.2
2023-03-26T20:20:05.096Z,1
2023-03-26T20:25:05.116Z,1.2
2023-03-26T20:30:05.280Z,1.1
2023-03-26T20:35:05.083Z,1.3
2023-03-26T20:40:05.117Z,1.3
2023-03-26T20:45:05.081Z,1.1
2023-03-26T20:50:05.101Z,1
2023-03-26T20:55:05.109Z,1.1
2023-03-26T21:00:05.088Z,1
2023-03-26T21:05:05.081Z,1
2023-03-26T21:10:05.097Z,1
2023-03-26T21:15:10.202Z,1.1
2023-03-26T21:20:05.082Z,1.1
2023-03-26T21:25:05.102Z,1.7
2023-03-26T21:30:05.083Z,1.5
2023-03-26T21:35:05.187Z,1.4
2023-03-26T21:40:05.099Z,1.4
2023-03-26T21:45:05.093Z,1.4
2023-03-26T21:50:05.096Z,1.4
2023-03-26T21:55:05.091Z,1
2023-03-26T22:00:05.083Z,1.1
2023-03-26T22:05:05.080Z,1.1
2023-03-26T22:10:05.109Z,1.1
2023-03-26T22:15:05.094Z,1.2
2023-03-26T22:20:05.090Z,1.3
2023-03-26T22:25:05.112Z,1.4
2023-03-26T22:30:05.103Z,1.1
2023-03-26T22:35:05.087Z,1.5
2023-03-26T22:40:05.095Z,1.5
2023-03-26T22:45:05.086Z,1.9
2023-03-26T22:50:05.108Z,1.6
2023-03-26T22:55:05.119Z,1.2
2023-03-26T23:00:05.117Z,0.9
2023-03-26T23:05:05.136Z,1.1
2023-03-26T23:10:05.130Z,1.1
2023-03-26T23:15:05.119Z,0.8
2023-03-26T23:20:05.100Z,0.5
2023-03-26T23:25:05.115Z,0.6
2023-03-26T23:30:05.090Z,0.6
2023-03-26T23:35:05.198Z,0.6
2023-03-26T23:40:05.359Z,0.6
2023-03-26T23:45:05.100Z,0.4
2023-03-26T23:50:05.114Z,0.4
2023-03-26T23:55:05.124Z,0.3
